Time,TemperatureF,DewpointF,PressureIn,WindDirection,WindDirectionDegrees,WindSpeedMPH,WindSpeedGustMPH,Humidity,HourlyPrecipIn,Conditions,Clouds,dailyrainin,SoftwareType,DateUTC
2013-10-22 03:22:00,42.0,39.0,-100.00,ENE,75,4.0,6.0,90,0.00,,,-99.99,,2013-10-22 08:22:00,
2013-10-22 03:42:00,42.0,39.0,-100.00,ENE,70,2.0,3.0,90,0.00,,,-99.99,,2013-10-22 08:42:00,
2013-10-22 04:21:00,42.0,40.0,-100.00,ENE,70,4.0,6.0,92,0.00,,,-99.99,,2013-10-22 09:21:00,
2013-10-22 04:43:00,41.0,40.0,-100.00,ENE,75,4.0,5.0,93,0.00,,,-99.99,,2013-10-22 09:43:00,
2013-10-22 06:22:00,41.0,39.0,-100.00,NE,55,4.0,4.0,93,0.00,,,-99.99,,2013-10-22 11:22:00,
2013-10-22 06:42:00,40.0,39.0,-100.00,ENE,75,3.0,4.0,95,0.00,,,-99.99,,2013-10-22 11:42:00,
2013-10-22 07:42:00,40.0,40.0,-100.00,NE,35,3.0,6.0,97,0.00,,,-99.99,,2013-10-22 12:42:00,
2013-10-22 08:42:00,41.0,40.0,-100.00,NE,50,4.0,6.0,96,0.00,,,-99.99,,2013-10-22 13:42:00,
2013-10-22 09:21:00,42.0,42.0,-100.00,NNE,30,6.0,8.0,96,0.00,,,-99.99,,2013-10-22 14:21:00,
2013-10-22 09:42:00,42.0,41.0,-100.00,NNE,20,6.0,9.0,96,1.06,,,-99.99,,2013-10-22 14:42:00,
2013-10-22 10:22:00,43.0,41.0,-100.00,NNE,20,5.0,9.0,93,0.00,,,-99.99,,2013-10-22 15:22:00,
2013-10-22 10:43:00,44.0,42.0,-100.00,North,5,8.0,10.0,90,0.00,,,-99.99,,2013-10-22 15:43:00,
2013-10-22 11:23:00,41.0,40.0,-100.00,North,0,8.0,17.0,97,1.62,,,-99.99,,2013-10-22 16:23:00,
2013-10-22 11:43:00,41.0,40.0,-100.00,North,10,7.0,12.0,99,2.55,,,-99.99,,2013-10-22 16:43:00,
2013-10-22 12:22:00,40.0,40.0,-100.00,North,10,7.0,17.0,99,2.30,,,-99.99,,2013-10-22 17:22:00,
2013-10-22 12:43:00,39.0,39.0,-100.00,North,10,9.0,13.0,99,2.20,,,-99.99,,2013-10-22 17:43:00,
2013-10-22 13:22:00,39.0,39.0,-100.00,SSW,210,12.0,16.0,99,3.07,,,-99.99,,2013-10-22 18:22:00,
2013-10-22 13:42:00,39.0,38.0,-100.00,North,0,15.0,21.0,99,2.66,,,-99.99,,2013-10-22 18:42:00,
2013-10-22 14:22:00,38.0,38.0,-100.00,North,0,12.0,16.0,99,1.87,,,-99.99,,2013-10-22 19:22:00,
2013-10-22 14:42:00,39.0,39.0,-100.00,SW,230,10.0,18.0,99,0.00,,,-99.99,,2013-10-22 19:42:00,
2013-10-22 15:22:00,39.0,39.0,-100.00,North,10,8.0,17.0,98,0.00,,,-99.99,,2013-10-22 20:22:00,
2013-10-22 15:42:00,39.0,38.0,-100.00,SW,225,10.0,19.0,96,0.00,,,-99.99,,2013-10-22 20:42:00,
2013-10-22 16:23:00,39.0,37.0,-100.00,SW,235,8.0,13.0,93,0.00,,,-99.99,,2013-10-22 21:23:00,
2013-10-22 17:24:00,39.0,36.0,-100.00,SW,220,7.0,11.0,86,0.00,,,-99.99,,2013-10-22 22:24:00,
2013-10-22 17:44:00,40.0,36.0,-100.00,SW,220,4.0,9.0,86,0.00,,,-99.99,,2013-10-22 22:44:00,
2013-10-22 18:23:00,39.0,35.0,-100.00,East,80,4.0,10.0,83,0.00,,,-99.99,,2013-10-22 23:23:00,
2013-10-22 18:43:00,39.0,35.0,-100.00,SSW,210,4.0,7.0,82,0.00,,,-99.99,,2013-10-22 23:43:00,
2013-10-22 19:22:00,39.0,35.0,-100.00,ENE,70,4.0,7.0,83,0.00,,,-99.99,,2013-10-23 00:22:00,
2013-10-22 21:22:00,39.0,34.0,-100.00,SW,215,6.0,11.0,80,0.00,,,-99.99,,2013-10-23 02:22:00,
2013-10-22 21:42:00,39.0,33.0,-100.00,SW,220,7.0,12.0,77,0.00,,,-99.99,,2013-10-23 02:42:00,
2013-10-22 22:22:00,38.0,31.0,-100.00,SW,220,4.0,9.0,72,0.00,,,-99.99,,2013-10-23 03:22:00,
2013-10-22 22:44:00,38.0,31.0,-100.00,SW,215,5.0,8.0,74,0.00,,,-99.99,,2013-10-23 03:44:00,
2013-10-22 23:24:00,38.0,31.0,-100.00,SSW,200,5.0,8.0,76,0.00,,,-99.99,,2013-10-23 04:24:00,
2013-10-22 23:45:00,38.0,31.0,-100.00,ESE,105,6.0,9.0,76,0.00,,,-99.99,,2013-10-23 04:45:00,